createdAt,value
2018-04-16T00:00:58.338Z,99.50
2018-04-16T00:03:24.935Z,98.90
2018-04-16T00:05:51.580Z,99.20
2018-04-16T00:08:18.102Z,99.40
2018-04-16T00:10:44.620Z,99.70
2018-04-16T00:13:11.123Z,99.90
2018-04-16T00:15:37.677Z,99.90
2018-04-16T00:18:04.221Z,99.70
2018-04-16T00:20:30.827Z,99.70
2018-04-16T00:22:57.389Z,99.70
2018-04-16T00:25:23.952Z,99.70
2018-04-16T00:27:50.466Z,99.70
2018-04-16T00:30:17.029Z,99.80
2018-04-16T00:32:49.549Z,99.70
2018-04-16T00:35:22.059Z,99.60
2018-04-16T00:37:54.460Z,99.70
2018-04-16T00:40:27.097Z,99.50
2018-04-16T00:42:59.723Z,99.40
2018-04-16T00:45:32.238Z,99.60
2018-04-16T00:48:04.691Z,99.60
2018-04-16T00:50:37.228Z,99.60
2018-04-16T00:53:09.885Z,99.50
2018-04-16T00:55:43.316Z,99.00
2018-04-16T00:58:15.878Z,98.80
2018-04-16T01:00:48.563Z,98.60
2018-04-16T01:03:21.119Z,98.60
2018-04-16T01:09:03.444Z,99.00
2018-04-16T01:11:36.759Z,98.60
2018-04-16T01:14:09.248Z,98.90
2018-04-16T01:16:41.727Z,99.10
2018-04-16T01:19:14.225Z,98.90
2018-04-16T01:21:47.494Z,98.90
2018-04-16T01:27:20.858Z,99.20
2018-04-16T01:29:54.108Z,99.30
2018-04-16T01:32:27.442Z,99.20
2018-04-16T01:34:59.936Z,99.20
2018-04-16T01:37:32.591Z,99.40
2018-04-16T01:43:05.023Z,99.20
2018-04-16T01:45:37.638Z,99.40
2018-04-16T01:48:10.153Z,99.50
2018-04-16T01:50:42.704Z,99.60
2018-04-16T01:53:15.315Z,99.80
2018-04-16T01:55:48.606Z,99.50
2018-04-16T01:58:21.914Z,99.40
2018-04-16T02:03:56.594Z,99.40
2018-04-16T02:06:41.906Z,99.60
2018-04-16T02:09:14.423Z,99.80
2018-04-16T02:11:46.949Z,99.90
2018-04-16T02:14:19.593Z,99.70
2018-04-16T02:16:52.171Z,99.30
2018-04-16T02:19:24.665Z,99.90
2018-04-16T02:21:57.167Z,99.90
2018-04-16T02:24:29.672Z,99.90
2018-04-16T02:27:02.203Z,99.90
2018-04-16T02:29:34.846Z,99.90
2018-04-16T02:32:07.439Z,99.90
2018-04-16T02:34:39.915Z,99.90
2018-04-16T02:37:12.335Z,99.90
2018-04-16T02:39:45.662Z,99.90
2018-04-16T02:42:18.202Z,99.90
2018-04-16T02:44:51.466Z,99.90
2018-04-16T02:47:24.031Z,99.90
2018-04-16T02:49:56.575Z,99.90
2018-04-16T02:52:29.077Z,99.90
2018-04-16T02:55:01.506Z,99.90
2018-04-16T02:57:34.046Z,99.90
2018-04-16T03:00:06.755Z,99.90
2018-04-16T03:02:40.018Z,99.90
2018-04-16T03:05:12.496Z,99.90
2018-04-16T03:07:45.829Z,99.90
2018-04-16T03:10:18.516Z,99.90
2018-04-16T03:12:51.023Z,99.90
2018-04-16T03:15:23.691Z,99.90
2018-04-16T03:17:56.339Z,99.90
2018-04-16T03:20:29.563Z,99.90
2018-04-16T03:23:02.152Z,99.90
2018-04-16T03:25:34.682Z,99.90
2018-04-16T03:28:07.237Z,99.90
2018-04-16T03:30:39.738Z,99.90
2018-04-16T03:33:12.339Z,99.90
2018-04-16T03:35:44.881Z,99.90
2018-04-16T03:38:17.412Z,99.90
2018-04-16T03:40:49.904Z,99.90
2018-04-16T03:43:22.416Z,99.90
2018-04-16T03:45:55.718Z,99.90
2018-04-16T03:48:28.362Z,99.90
2018-04-16T03:51:00.900Z,99.90
2018-04-16T03:53:36.298Z,99.90
2018-04-16T03:56:02.868Z,99.90
2018-04-16T03:58:30.189Z,99.90
2018-04-16T04:00:56.694Z,99.90
2018-04-16T04:03:23.252Z,99.90
2018-04-16T04:05:49.859Z,99.90
2018-04-16T04:08:16.918Z,99.90
2018-04-16T04:10:43.480Z,99.90
2018-04-16T04:13:10.055Z,99.90
2018-04-16T04:15:36.582Z,99.90
2018-04-16T04:18:03.096Z,99.90
2018-04-16T04:20:29.752Z,99.90
2018-04-16T04:26:13.410Z,99.90
2018-04-16T04:28:52.797Z,99.90
2018-04-16T04:31:19.359Z,99.90
2018-04-16T04:33:45.928Z,99.90
2018-04-16T04:36:12.522Z,99.90
2018-04-16T04:38:39.034Z,99.90
2018-04-16T04:41:05.589Z,99.90
2018-04-16T04:43:32.184Z,99.90
2018-04-16T04:45:58.715Z,99.90
2018-04-16T04:48:25.207Z,99.90
2018-04-16T04:50:51.727Z,99.90
2018-04-16T04:53:18.240Z,99.90
2018-04-16T04:55:44.785Z,99.90
2018-04-16T04:58:19.133Z,99.90
2018-04-16T05:00:45.943Z,99.90
2018-04-16T05:03:12.521Z,99.90
2018-04-16T05:05:39.132Z,99.90
2018-04-16T05:08:05.799Z,99.90
2018-04-16T05:10:32.357Z,99.90
2018-04-16T05:12:59.600Z,99.90
2018-04-16T05:15:26.955Z,99.90
2018-04-16T05:17:54.327Z,99.90
2018-04-16T05:20:20.820Z,99.90
2018-04-16T05:22:47.384Z,99.90
2018-04-16T05:25:14.652Z,99.90
2018-04-16T05:27:41.241Z,99.90
2018-04-16T05:30:07.793Z,99.90
2018-04-16T05:32:34.396Z,99.90
2018-04-16T05:35:00.923Z,99.90
2018-04-16T05:37:27.501Z,99.90
2018-04-16T05:39:54.051Z,99.90
2018-04-16T05:42:20.537Z,99.90
2018-04-16T05:44:47.062Z,99.90
2018-04-16T05:47:13.590Z,99.90
2018-04-16T05:49:40.132Z,99.90
2018-04-16T05:52:06.661Z,99.90
2018-04-16T05:54:33.251Z,99.90
2018-04-16T05:56:59.806Z,99.90
2018-04-16T05:59:27.069Z,99.90
2018-04-16T06:01:53.602Z,99.90
2018-04-16T06:04:20.845Z,99.90
2018-04-16T06:06:48.114Z,99.90
2018-04-16T06:09:14.642Z,99.90
2018-04-16T06:11:41.174Z,99.90
2018-04-16T06:14:07.719Z,99.90
2018-04-16T06:16:34.269Z,99.90
2018-04-16T06:19:00.801Z,99.60
2018-04-16T06:21:27.393Z,99.40
2018-04-16T06:23:53.937Z,99.80
2018-04-16T06:26:20.600Z,99.20
2018-04-16T06:28:47.918Z,98.60
2018-04-16T06:31:14.425Z,98.60
2018-04-16T06:33:40.936Z,99.00
2018-04-16T06:36:07.486Z,99.40
2018-04-16T06:38:34.009Z,98.80
2018-04-16T06:41:01.265Z,98.10
2018-04-16T06:43:27.791Z,98.10
2018-04-16T06:45:54.375Z,98.20
2018-04-16T06:48:21.727Z,98.60
2018-04-16T06:50:48.233Z,97.80
2018-04-16T06:53:14.748Z,97.10
2018-04-16T06:55:41.245Z,96.40
2018-04-16T06:58:07.798Z,97.10
2018-04-16T07:00:34.381Z,96.80
2018-04-16T07:03:00.980Z,96.70
2018-04-16T07:05:27.570Z,96.40
2018-04-16T07:07:54.102Z,96.50
2018-04-16T07:10:20.711Z,96.80
2018-04-16T07:12:47.283Z,96.50
2018-04-16T07:15:13.809Z,96.30
2018-04-16T07:17:40.386Z,95.90
2018-04-16T07:20:06.964Z,95.30
2018-04-16T07:22:34.158Z,95.60
2018-04-16T07:25:00.653Z,95.30
2018-04-16T07:27:27.978Z,96.20
2018-04-16T07:29:54.470Z,94.70
2018-04-16T07:32:21.750Z,94.10
2018-04-16T07:34:48.264Z,94.10
2018-04-16T07:37:15.471Z,93.00
2018-04-16T07:39:42.078Z,92.10
2018-04-16T07:42:08.576Z,92.20
2018-04-16T07:44:35.129Z,90.50
2018-04-16T07:47:01.684Z,90.30
2018-04-16T07:49:28.188Z,88.80
2018-04-16T07:51:55.451Z,89.70
2018-04-16T07:54:22.721Z,88.90
2018-04-16T07:56:50.233Z,88.80
2018-04-16T07:59:16.741Z,89.60
2018-04-16T08:01:44.076Z,88.80
2018-04-16T08:04:10.636Z,88.80
2018-04-16T08:06:39.830Z,89.10
2018-04-16T08:09:06.404Z,89.20
2018-04-16T08:11:32.987Z,87.20
2018-04-16T08:13:59.620Z,84.70
2018-04-16T08:16:26.597Z,82.20
2018-04-16T08:18:53.129Z,83.30
2018-04-16T08:21:19.688Z,82.50
2018-04-16T08:23:46.236Z,82.20
2018-04-16T08:26:12.819Z,81.70
2018-04-16T08:28:40.164Z,81.30
2018-04-16T08:31:06.709Z,81.20
2018-04-16T08:33:33.291Z,82.00
2018-04-16T08:35:59.900Z,78.20
2018-04-16T08:38:26.551Z,78.10
2018-04-16T08:40:53.085Z,75.50
2018-04-16T08:43:19.751Z,76.10
2018-04-16T08:45:46.336Z,73.80
2018-04-16T08:48:17.788Z,75.70
2018-04-16T08:50:44.364Z,75.60
2018-04-16T08:53:10.966Z,76.80
2018-04-16T08:55:37.539Z,77.00
2018-04-16T08:58:04.137Z,79.20
2018-04-16T09:00:30.721Z,80.80
2018-04-16T09:02:57.290Z,81.10
2018-04-16T09:05:23.891Z,80.80
2018-04-16T09:07:50.472Z,80.30
2018-04-16T09:10:17.051Z,81.40
2018-04-16T09:12:43.624Z,80.80
2018-04-16T09:15:10.245Z,80.70
2018-04-16T09:17:36.868Z,80.60
2018-04-16T09:20:03.493Z,80.60
2018-04-16T09:22:30.051Z,81.30
2018-04-16T09:24:56.628Z,83.90
2018-04-16T09:27:23.202Z,82.80
2018-04-16T09:29:50.538Z,84.70
2018-04-16T09:32:17.102Z,84.70
2018-04-16T09:34:43.663Z,83.10
2018-04-16T09:37:10.266Z,85.70
2018-04-16T09:39:36.870Z,85.60
2018-04-16T09:42:03.456Z,84.00
2018-04-16T09:44:30.063Z,83.10
2018-04-16T09:46:56.683Z,81.70
2018-04-16T09:49:23.238Z,80.60
2018-04-16T09:51:49.824Z,79.10
2018-04-16T09:54:16.385Z,80.20
2018-04-16T09:56:42.948Z,80.70
2018-04-16T09:59:09.492Z,82.80
2018-04-16T10:01:37.994Z,81.90
2018-04-16T10:04:04.593Z,80.10
2018-04-16T10:06:31.213Z,80.90
2018-04-16T10:08:57.909Z,79.20
2018-04-16T10:11:24.565Z,80.70
2018-04-16T10:13:51.106Z,80.70
2018-04-16T10:16:17.661Z,80.90
2018-04-16T10:18:44.240Z,81.60
2018-04-16T10:21:10.858Z,80.30
2018-04-16T10:23:37.403Z,78.80
2018-04-16T10:26:03.991Z,78.90
2018-04-16T10:28:30.579Z,75.30
2018-04-16T10:30:57.865Z,74.80
2018-04-16T10:33:24.415Z,74.80
2018-04-16T10:35:50.984Z,74.00
2018-04-16T10:38:17.570Z,76.00
2018-04-16T10:40:44.164Z,72.10
2018-04-16T10:43:10.756Z,72.60
2018-04-16T10:45:37.329Z,71.30
2018-04-16T10:48:03.883Z,72.70
2018-04-16T10:50:30.435Z,71.50
2018-04-16T10:52:57.763Z,73.80
2018-04-16T10:55:24.315Z,73.80
2018-04-16T10:57:50.866Z,73.70
2018-04-16T11:00:17.448Z,74.00
2018-04-16T11:02:44.040Z,75.50
2018-04-16T11:05:10.642Z,74.20
2018-04-16T11:07:37.201Z,76.90
2018-04-16T11:10:04.498Z,76.40
2018-04-16T11:12:31.049Z,76.40
2018-04-16T11:14:57.608Z,74.60
2018-04-16T11:17:24.152Z,74.60
2018-04-16T11:19:50.721Z,73.80
2018-04-16T11:22:17.355Z,71.50
2018-04-16T11:24:43.973Z,71.50
2018-04-16T11:27:10.535Z,70.80
2018-04-16T11:29:37.143Z,71.50
2018-04-16T11:32:04.469Z,71.20
2018-04-16T11:34:31.038Z,71.20
2018-04-16T11:36:58.362Z,65.10
2018-04-16T11:39:24.932Z,65.50
2018-04-16T11:41:51.511Z,66.30
2018-04-16T11:44:18.085Z,66.10
2018-04-16T11:46:44.666Z,68.50
2018-04-16T11:49:11.244Z,69.70
2018-04-16T11:51:37.810Z,69.10
2018-04-16T11:54:04.375Z,68.40
2018-04-16T11:56:30.924Z,67.80
2018-04-16T11:58:57.482Z,69.00
2018-04-16T12:01:24.094Z,69.00
2018-04-16T12:03:50.634Z,68.20
2018-04-16T12:06:17.232Z,69.30
2018-04-16T12:08:44.573Z,71.30
2018-04-16T12:11:11.201Z,71.40
2018-04-16T12:13:37.817Z,72.00
2018-04-16T12:16:04.503Z,72.20
2018-04-16T12:18:30.987Z,72.40
2018-04-16T12:20:57.534Z,72.60
2018-04-16T12:23:24.142Z,70.40
2018-04-16T12:25:50.711Z,71.50
2018-04-16T12:28:17.320Z,70.50
2018-04-16T12:30:43.928Z,71.10
2018-04-16T12:33:10.538Z,70.00
2018-04-16T12:35:37.441Z,72.10
2018-04-16T12:38:04.108Z,73.50
2018-04-16T12:40:30.718Z,77.00
2018-04-16T12:42:57.376Z,78.80
2018-04-16T12:45:25.778Z,79.60
2018-04-16T12:47:52.380Z,82.10
2018-04-16T12:50:18.955Z,85.60
2018-04-16T12:52:45.557Z,87.90
2018-04-16T12:55:12.131Z,88.80
2018-04-16T12:57:38.726Z,90.80
2018-04-16T13:00:05.372Z,92.40
2018-04-16T13:02:31.987Z,92.80
2018-04-16T13:04:58.595Z,93.50
2018-04-16T13:07:25.988Z,93.00
2018-04-16T13:09:52.598Z,93.30
2018-04-16T13:12:19.157Z,92.60
2018-04-16T13:14:45.754Z,92.30
2018-04-16T13:17:12.386Z,92.10
2018-04-16T13:19:39.041Z,92.10
2018-04-16T13:22:09.926Z,91.10
2018-04-16T13:24:37.657Z,90.20
2018-04-16T13:27:05.052Z,89.30
2018-04-16T13:29:31.626Z,89.30
2018-04-16T13:31:58.244Z,85.20
2018-04-16T13:34:24.846Z,77.60
2018-04-16T13:36:51.561Z,73.00
2018-04-16T13:39:18.278Z,76.60
2018-04-16T13:41:44.865Z,71.70
2018-04-16T13:44:11.449Z,72.80
2018-04-16T13:46:38.095Z,67.50
2018-04-16T13:49:04.673Z,73.30
2018-04-16T13:51:31.374Z,76.20
2018-04-16T13:53:58.001Z,77.10
2018-04-16T13:56:24.696Z,74.60
2018-04-16T13:58:51.432Z,69.80
2018-04-16T14:01:18.065Z,69.50
2018-04-16T14:03:44.734Z,68.80
2018-04-16T14:06:11.342Z,68.00
2018-04-16T14:08:38.555Z,72.30
2018-04-16T14:11:05.962Z,71.00
2018-04-16T14:13:32.597Z,70.90
2018-04-16T14:15:59.196Z,71.00
2018-04-16T14:18:25.808Z,73.10
2018-04-16T14:20:52.371Z,69.60
2018-04-16T14:23:18.939Z,69.00
2018-04-16T14:25:45.532Z,67.10
2018-04-16T14:28:12.188Z,66.70
2018-04-16T14:30:38.771Z,67.80
2018-04-16T14:33:05.377Z,68.40
2018-04-16T14:35:31.959Z,67.10
2018-04-16T14:37:58.559Z,69.50
2018-04-16T14:40:25.122Z,72.90
2018-04-16T14:42:51.732Z,69.70
2018-04-16T14:45:18.347Z,67.70
2018-04-16T14:47:45.681Z,69.90
2018-04-16T14:50:12.240Z,70.00
2018-04-16T14:52:39.540Z,71.00
2018-04-16T14:55:06.112Z,71.10
2018-04-16T14:57:32.670Z,70.50
2018-04-16T14:59:59.255Z,71.80
2018-04-16T15:02:25.777Z,73.40
2018-04-16T15:04:52.353Z,73.60
2018-04-16T15:07:18.893Z,74.00
2018-04-16T15:09:45.458Z,75.80
2018-04-16T15:12:12.012Z,77.50
2018-04-16T15:14:38.513Z,78.70
2018-04-16T15:17:05.121Z,79.70
2018-04-16T15:19:31.670Z,79.90
2018-04-16T15:21:58.291Z,80.50
2018-04-16T15:24:24.861Z,80.60
2018-04-16T15:26:51.396Z,81.20
2018-04-16T15:29:17.908Z,81.90
2018-04-16T15:31:44.522Z,83.60
2018-04-16T15:34:11.097Z,84.70
2018-04-16T15:36:37.670Z,86.30
2018-04-16T15:39:05.217Z,87.40
2018-04-16T15:41:32.461Z,90.70
2018-04-16T15:43:59.792Z,87.70
2018-04-16T15:46:26.416Z,87.50
2018-04-16T15:48:52.933Z,88.00
2018-04-16T15:51:19.493Z,91.50
2018-04-16T15:53:46.079Z,88.10
2018-04-16T15:56:13.031Z,88.40
2018-04-16T15:58:39.602Z,88.30
2018-04-16T16:01:06.998Z,88.40
2018-04-16T16:03:36.273Z,90.60
2018-04-16T16:06:02.883Z,90.60
2018-04-16T16:08:29.470Z,91.70
2018-04-16T16:10:56.801Z,93.90
2018-04-16T16:13:23.420Z,94.00
2018-04-16T16:15:49.984Z,94.60
2018-04-16T16:18:16.556Z,96.10
2018-04-16T16:20:43.171Z,96.90
2018-04-16T16:23:10.501Z,96.70
2018-04-16T16:25:37.092Z,96.80
2018-04-16T16:28:03.722Z,97.00
2018-04-16T16:30:31.037Z,97.60
2018-04-16T16:32:57.561Z,97.70
2018-04-16T16:35:24.169Z,97.70
2018-04-16T16:37:50.657Z,96.30
2018-04-16T16:40:18.591Z,96.90
2018-04-16T16:42:46.425Z,96.40
2018-04-16T16:45:12.948Z,96.10
2018-04-16T16:47:39.591Z,96.60
2018-04-16T16:50:06.191Z,95.30
2018-04-16T16:52:32.800Z,95.10
2018-04-16T16:54:59.402Z,95.00
2018-04-16T16:57:26.649Z,97.00
2018-04-16T16:59:54.028Z,98.00
2018-04-16T17:02:20.618Z,98.00
2018-04-16T17:04:47.153Z,98.50
2018-04-16T17:07:13.717Z,98.90
2018-04-16T17:09:40.991Z,98.40
2018-04-16T17:12:08.512Z,98.50
2018-04-16T17:14:35.030Z,98.40
2018-04-16T17:17:01.650Z,98.30
2018-04-16T17:19:28.288Z,98.10
2018-04-16T17:21:54.873Z,97.90
2018-04-16T17:24:21.511Z,98.10
2018-04-16T17:26:48.852Z,98.60
2018-04-16T17:29:15.388Z,98.60
2018-04-16T17:31:42.043Z,98.70
2018-04-16T17:34:08.552Z,99.10
2018-04-16T17:36:35.065Z,99.10
2018-04-16T17:39:01.670Z,98.80
2018-04-16T17:41:28.527Z,98.50
2018-04-16T17:43:55.053Z,98.70
2018-04-16T17:46:21.686Z,99.80
2018-04-16T17:48:48.274Z,99.90
2018-04-16T17:51:14.843Z,99.90
2018-04-16T17:53:41.521Z,99.90
2018-04-16T17:56:08.218Z,99.90
2018-04-16T17:58:34.901Z,99.90
2018-04-16T18:01:02.102Z,99.90
2018-04-16T18:03:29.405Z,99.90
2018-04-16T18:05:55.969Z,99.90
2018-04-16T18:08:22.518Z,99.60
2018-04-16T18:10:49.076Z,99.50
2018-04-16T18:13:15.591Z,98.70
2018-04-16T18:15:42.124Z,98.60
2018-04-16T18:18:09.400Z,97.60
2018-04-16T18:20:36.714Z,97.70
2018-04-16T18:23:03.977Z,97.50
2018-04-16T18:25:30.556Z,97.40
2018-04-16T18:27:57.104Z,97.80
2018-04-16T18:30:23.777Z,98.00
2018-04-16T18:32:50.326Z,98.30
2018-04-16T18:35:16.892Z,97.80
2018-04-16T18:37:43.607Z,98.50
2018-04-16T18:40:10.195Z,98.90
2018-04-16T18:42:36.719Z,99.20
2018-04-16T18:45:03.372Z,99.40
2018-04-16T18:47:29.909Z,99.30
2018-04-16T18:49:56.503Z,98.80
2018-04-16T18:52:24.304Z,98.40
2018-04-16T18:54:50.845Z,98.40
2018-04-16T18:57:17.553Z,97.70
2018-04-16T18:59:44.814Z,98.90
2018-04-16T19:02:11.389Z,99.00
2018-04-16T19:04:38.027Z,99.50
2018-04-16T19:07:04.578Z,99.90
2018-04-16T19:09:31.216Z,99.90
2018-04-16T19:11:57.726Z,99.80
2018-04-16T19:14:24.251Z,99.90
2018-04-16T19:16:50.826Z,99.70
2018-04-16T19:19:17.403Z,98.70
2018-04-16T19:21:49.868Z,98.20
2018-04-16T19:24:16.437Z,98.80
2018-04-16T19:26:48.917Z,99.10
2018-04-16T19:29:15.464Z,98.90
2018-04-16T19:31:42.964Z,98.20
2018-04-16T19:34:15.648Z,98.20
2018-04-16T19:36:42.208Z,97.50
2018-04-16T19:39:08.732Z,96.90
2018-04-16T19:41:42.342Z,97.10
2018-04-16T19:44:08.929Z,97.70
2018-04-16T19:46:35.600Z,98.40
2018-04-16T19:49:08.290Z,98.20
2018-04-16T19:51:35.576Z,97.90
2018-04-16T19:54:02.138Z,98.00
2018-04-16T19:56:34.787Z,97.90
2018-04-16T19:59:02.087Z,98.20
2018-04-16T20:01:28.632Z,98.90
2018-04-16T20:04:00.905Z,99.20
2018-04-16T20:06:27.480Z,99.20
2018-04-16T20:08:53.994Z,99.30
2018-04-16T20:11:20.542Z,99.00
2018-04-16T20:13:47.044Z,99.20
2018-04-16T20:16:14.340Z,99.50
2018-04-16T20:18:40.897Z,99.50
2018-04-16T20:21:07.443Z,99.90
2018-04-16T20:23:34.031Z,99.80
2018-04-16T20:26:00.616Z,99.70
2018-04-16T20:28:27.239Z,99.80
2018-04-16T20:30:53.757Z,99.30
2018-04-16T20:33:20.316Z,99.20
2018-04-16T20:35:46.980Z,99.40
2018-04-16T20:38:13.521Z,99.40
2018-04-16T20:40:40.075Z,99.40
2018-04-16T20:43:06.604Z,99.80
2018-04-16T20:45:33.112Z,99.90
2018-04-16T20:47:59.597Z,99.90
2018-04-16T20:50:26.858Z,99.90
2018-04-16T20:52:53.354Z,99.90
2018-04-16T20:55:19.925Z,99.90
2018-04-16T20:57:46.483Z,99.90
2018-04-16T21:00:13.013Z,99.90
2018-04-16T21:02:39.526Z,99.90
2018-04-16T21:05:06.773Z,99.90
2018-04-16T21:07:34.174Z,99.60
2018-04-16T21:12:32.836Z,99.80
2018-04-16T21:15:00.091Z,99.70
2018-04-16T21:17:26.643Z,99.90
2018-04-16T21:19:53.325Z,99.90
2018-04-16T21:22:19.924Z,99.90
2018-04-16T21:24:46.460Z,99.90
2018-04-16T21:27:13.002Z,99.90
2018-04-16T21:29:39.626Z,99.90
2018-04-16T21:32:06.178Z,99.90
2018-04-16T21:34:32.681Z,99.90
2018-04-16T21:37:00.057Z,99.90
2018-04-16T21:39:26.669Z,99.90
2018-04-16T21:41:53.951Z,99.90
2018-04-16T21:44:20.674Z,99.90
2018-04-16T21:46:47.339Z,99.90
2018-04-16T21:49:14.729Z,99.90
2018-04-16T21:51:41.312Z,99.90
2018-04-16T21:54:07.817Z,99.90
2018-04-16T21:56:34.340Z,99.90
2018-04-16T21:59:00.857Z,99.90
2018-04-16T22:01:27.405Z,99.90
2018-04-16T22:03:54.033Z,99.90
2018-04-16T22:06:20.681Z,99.90
2018-04-16T22:08:47.311Z,99.90
2018-04-16T22:11:13.886Z,99.90
2018-04-16T22:13:40.403Z,99.90
2018-04-16T22:16:06.938Z,99.90
2018-04-16T22:18:33.510Z,99.90
2018-04-16T22:21:00.774Z,99.90
2018-04-16T22:23:27.320Z,99.90
2018-04-16T22:25:53.841Z,99.90
2018-04-16T22:28:20.334Z,99.90
2018-04-16T22:30:46.853Z,99.90
2018-04-16T22:33:14.020Z,99.40
2018-04-16T22:35:40.663Z,99.20
2018-04-16T22:38:07.220Z,98.70
2018-04-16T22:40:34.516Z,98.20
2018-04-16T22:43:01.030Z,98.20
2018-04-16T22:45:27.630Z,97.50
2018-04-16T22:47:54.147Z,97.50
2018-04-16T22:50:20.690Z,96.80
2018-04-16T22:52:47.365Z,96.90
2018-04-16T22:55:13.939Z,97.20
2018-04-16T22:57:40.466Z,96.80
2018-04-16T23:00:07.082Z,96.70
2018-04-16T23:02:33.685Z,96.60
2018-04-16T23:05:00.220Z,96.70
2018-04-16T23:07:26.770Z,96.40
2018-04-16T23:09:54.077Z,97.30
2018-04-16T23:12:20.625Z,97.30
2018-04-16T23:14:47.136Z,97.70
2018-04-16T23:17:13.707Z,98.30
2018-04-16T23:19:40.244Z,99.00
2018-04-16T23:22:06.784Z,99.30
2018-04-16T23:24:33.414Z,99.40
2018-04-16T23:26:59.954Z,99.10
2018-04-16T23:29:26.483Z,98.70
2018-04-16T23:31:53.031Z,98.40
2018-04-16T23:34:19.643Z,98.70
2018-04-16T23:36:46.917Z,99.00
2018-04-16T23:39:13.455Z,99.30
2018-04-16T23:41:40.018Z,99.30
2018-04-16T23:44:07.296Z,98.50
2018-04-16T23:46:33.830Z,98.60
2018-04-16T23:49:00.394Z,98.60
2018-04-16T23:51:26.900Z,98.90
2018-04-16T23:53:53.410Z,99.20
2018-04-16T23:56:20.651Z,99.60
2018-04-16T23:58:47.200Z,99.70
